THY1VT LSZH-LTFM
Flight info
| Callsign | THY1VT |
|---|---|
| Flight time | 2h 12m |
| Altitude | 35000 |
| Route | DEGES Z2 TUNUM Z204 GEDSO DCT GIMIX DCT LURID DCT SOSEK DCT NISVA L614 DEDIN/N0447F330 DCT AYTEK |
| Aircraft | A321/M-SDE3FGHIRWY/LB1 |
Departure
| Time | 2026-05-05 19:17 |
|---|---|
| Airport | Zürich Airport (LSZH) |
Arrival
| Time | 2026-05-05 21:29 |
|---|---|
| Airport | İstanbul Airport (LTFM) |
| Time | Latitude | Longitude | Altitude | Speed | Heading |
|---|---|---|---|---|---|
| 2026-05-05 18:33 | 47.46046 | 8.55644 | 1404 ft | 0 kts | 6° |
| 2026-05-05 19:06 | 47.46030 | 8.55642 | 1409 ft | 2 kts | 8° |
| 2026-05-05 19:07 | 47.46014 | 8.55638 | 1404 ft | 2 kts | 9° |
| 2026-05-05 19:07 | 47.45997 | 8.55633 | 1407 ft | 2 kts | 13° |
| 2026-05-05 19:07 | 47.45981 | 8.55627 | 1408 ft | 2 kts | 22° |
| 2026-05-05 19:07 | 47.45967 | 8.55617 | 1409 ft | 2 kts | 43° |
| 2026-05-05 19:08 | 47.45958 | 8.55597 | 1410 ft | 2 kts | 95° |
| 2026-05-05 19:08 | 47.45959 | 8.55591 | 1409 ft | 0 kts | 97° |
| 2026-05-05 19:10 | 47.45957 | 8.55615 | 1405 ft | 7 kts | 95° |
| 2026-05-05 19:11 | 47.45949 | 8.55734 | 1408 ft | 15 kts | 96° |
| 2026-05-05 19:11 | 47.45938 | 8.55887 | 1406 ft | 14 kts | 96° |
| 2026-05-05 19:11 | 47.45928 | 8.56029 | 1410 ft | 13 kts | 96° |
| 2026-05-05 19:11 | 47.45919 | 8.56159 | 1412 ft | 12 kts | 96° |
| 2026-05-05 19:12 | 47.45915 | 8.56208 | 1411 ft | 0 kts | 96° |
| 2026-05-05 19:13 | 47.45915 | 8.56213 | 1411 ft | 2 kts | 96° |
| 2026-05-05 19:13 | 47.45913 | 8.56275 | 1413 ft | 8 kts | 83° |
| 2026-05-05 19:13 | 47.45961 | 8.56317 | 1417 ft | 10 kts | 6° |
| 2026-05-05 19:13 | 47.46017 | 8.56324 | 1414 ft | 4 kts | 5° |
| 2026-05-05 19:14 | 47.46018 | 8.56325 | 1414 ft | 0 kts | 5° |
| 2026-05-05 19:14 | 47.46020 | 8.56325 | 1415 ft | 2 kts | 5° |
| 2026-05-05 19:15 | 47.46077 | 8.56334 | 1414 ft | 12 kts | 6° |
| 2026-05-05 19:15 | 47.46168 | 8.56349 | 1411 ft | 13 kts | 6° |
| 2026-05-05 19:15 | 47.46225 | 8.56316 | 1411 ft | 0 kts | 316° |
| 2026-05-05 19:16 | 47.46244 | 8.56289 | 1408 ft | 15 kts | 316° |
| 2026-05-05 19:16 | 47.46519 | 8.55913 | 1399 ft | 91 kts | 317° |
| 2026-05-05 19:17 | 47.47136 | 8.55073 | 1386 ft | 151 kts | 317° |
| 2026-05-05 19:17 | 47.48015 | 8.53874 | 1622 ft | 182 kts | 316° |
| 2026-05-05 19:17 | 47.48993 | 8.52635 | 2292 ft | 188 kts | 321° |
| 2026-05-05 19:17 | 47.50114 | 8.51605 | 3042 ft | 191 kts | 329° |
| 2026-05-05 19:18 | 47.51267 | 8.50623 | 3747 ft | 193 kts | 324° |
| 2026-05-05 19:18 | 47.52391 | 8.49452 | 3998 ft | 205 kts | 310° |
| 2026-05-05 19:18 | 47.53203 | 8.47683 | 4278 ft | 211 kts | 289° |
| 2026-05-05 19:18 | 47.53531 | 8.45579 | 4799 ft | 210 kts | 270° |
| 2026-05-05 19:19 | 47.53315 | 8.43465 | 5375 ft | 209 kts | 250° |
| 2026-05-05 19:19 | 47.52711 | 8.41515 | 5992 ft | 208 kts | 244° |
| 2026-05-05 19:19 | 47.52094 | 8.39583 | 6570 ft | 207 kts | 244° |
| 2026-05-05 19:19 | 47.51213 | 8.37910 | 7083 ft | 212 kts | 218° |
| 2026-05-05 19:20 | 47.49793 | 8.37066 | 7306 ft | 236 kts | 189° |
| 2026-05-05 19:20 | 47.48123 | 8.37610 | 7502 ft | 265 kts | 153° |
| 2026-05-05 19:20 | 47.46836 | 8.39698 | 7827 ft | 290 kts | 117° |
| 2026-05-05 19:20 | 47.46253 | 8.42594 | 8411 ft | 299 kts | 102° |
| 2026-05-05 19:21 | 47.46006 | 8.45660 | 9054 ft | 302 kts | 98° |
| 2026-05-05 19:21 | 47.45809 | 8.48759 | 9721 ft | 304 kts | 98° |
| 2026-05-05 19:21 | 47.45617 | 8.51900 | 10170 ft | 314 kts | 98° |
| 2026-05-05 19:21 | 47.45413 | 8.55218 | 10281 ft | 334 kts | 98° |
| 2026-05-05 19:22 | 47.45197 | 8.58717 | 10407 ft | 352 kts | 98° |
| 2026-05-05 19:22 | 47.44970 | 8.62413 | 10561 ft | 368 kts | 98° |
| 2026-05-05 19:22 | 47.44741 | 8.66173 | 10967 ft | 374 kts | 97° |
| 2026-05-05 19:22 | 47.44505 | 8.70029 | 11479 ft | 378 kts | 98° |
| 2026-05-05 19:23 | 47.44263 | 8.73916 | 12004 ft | 382 kts | 98° |
| 2026-05-05 19:23 | 47.44015 | 8.77840 | 12504 ft | 385 kts | 97° |
| 2026-05-05 19:23 | 47.43766 | 8.81781 | 13068 ft | 387 kts | 97° |
| 2026-05-05 19:23 | 47.43514 | 8.85751 | 13574 ft | 390 kts | 97° |
| 2026-05-05 19:24 | 47.43259 | 8.89765 | 14032 ft | 394 kts | 97° |
| 2026-05-05 19:24 | 47.43000 | 8.93802 | 14491 ft | 396 kts | 97° |
| 2026-05-05 19:24 | 47.42736 | 8.97862 | 14956 ft | 398 kts | 97° |
| 2026-05-05 19:24 | 47.42506 | 9.01954 | 15459 ft | 401 kts | 95° |
| 2026-05-05 19:25 | 47.42391 | 9.06076 | 15953 ft | 403 kts | 93° |
| 2026-05-05 19:25 | 47.42355 | 9.10227 | 16436 ft | 405 kts | 92° |
| 2026-05-05 19:25 | 47.42352 | 9.14410 | 16914 ft | 407 kts | 92° |
| 2026-05-05 19:25 | 47.42351 | 9.18601 | 17357 ft | 409 kts | 92° |
| 2026-05-05 19:26 | 47.42333 | 9.22815 | 17786 ft | 412 kts | 92° |
| 2026-05-05 19:26 | 47.42295 | 9.27053 | 18207 ft | 414 kts | 93° |
| 2026-05-05 19:26 | 47.42239 | 9.31315 | 18581 ft | 416 kts | 93° |
| 2026-05-05 19:26 | 47.42173 | 9.35608 | 18954 ft | 418 kts | 94° |
| 2026-05-05 19:27 | 47.42103 | 9.39911 | 19364 ft | 420 kts | 94° |
| 2026-05-05 19:27 | 47.42035 | 9.44183 | 19731 ft | 422 kts | 94° |
| 2026-05-05 19:27 | 47.41965 | 9.48523 | 20096 ft | 424 kts | 94° |
| 2026-05-05 19:27 | 47.41896 | 9.52884 | 20468 ft | 426 kts | 94° |
| 2026-05-05 19:28 | 47.41826 | 9.57276 | 20829 ft | 429 kts | 94° |
| 2026-05-05 19:28 | 47.41754 | 9.61688 | 21161 ft | 431 kts | 94° |
| 2026-05-05 19:28 | 47.41679 | 9.66147 | 21441 ft | 435 kts | 94° |
| 2026-05-05 19:28 | 47.41600 | 9.70619 | 21769 ft | 438 kts | 94° |
| 2026-05-05 19:29 | 47.41503 | 9.75132 | 22105 ft | 439 kts | 97° |
| 2026-05-05 19:29 | 47.40983 | 9.79557 | 22433 ft | 438 kts | 105° |
| 2026-05-05 19:29 | 47.40333 | 9.83956 | 22787 ft | 440 kts | 106° |
| 2026-05-05 19:29 | 47.39673 | 9.88378 | 23121 ft | 442 kts | 106° |
| 2026-05-05 19:30 | 47.39006 | 9.92826 | 23453 ft | 444 kts | 106° |
| 2026-05-05 19:30 | 47.38345 | 9.97222 | 23751 ft | 446 kts | 106° |
| 2026-05-05 19:30 | 47.37668 | 10.01702 | 24011 ft | 448 kts | 107° |
| 2026-05-05 19:30 | 47.36984 | 10.06212 | 24212 ft | 453 kts | 107° |
| 2026-05-05 19:31 | 47.36294 | 10.10759 | 24459 ft | 456 kts | 107° |
| 2026-05-05 19:31 | 47.35601 | 10.15330 | 24711 ft | 457 kts | 107° |
| 2026-05-05 19:31 | 47.34906 | 10.19918 | 24954 ft | 460 kts | 107° |
| 2026-05-05 19:31 | 47.34204 | 10.24523 | 25187 ft | 462 kts | 107° |
| 2026-05-05 19:32 | 47.33493 | 10.29164 | 25403 ft | 465 kts | 107° |
| 2026-05-05 19:32 | 47.32776 | 10.33821 | 25598 ft | 467 kts | 108° |
| 2026-05-05 19:32 | 47.32055 | 10.38491 | 25821 ft | 468 kts | 108° |
| 2026-05-05 19:32 | 47.31331 | 10.43179 | 26070 ft | 470 kts | 108° |
| 2026-05-05 19:33 | 47.30600 | 10.47889 | 26314 ft | 473 kts | 108° |
| 2026-05-05 19:33 | 47.29862 | 10.52628 | 26534 ft | 475 kts | 108° |
| 2026-05-05 19:33 | 47.29118 | 10.57380 | 26758 ft | 477 kts | 108° |
| 2026-05-05 19:33 | 47.28370 | 10.62155 | 26989 ft | 478 kts | 108° |
| 2026-05-05 19:34 | 47.27616 | 10.66944 | 27195 ft | 480 kts | 108° |
| 2026-05-05 19:34 | 47.26863 | 10.71737 | 27350 ft | 482 kts | 108° |
| 2026-05-05 19:34 | 47.26105 | 10.76551 | 27541 ft | 484 kts | 108° |
| 2026-05-05 19:35 | 47.24571 | 10.86226 | 27947 ft | 486 kts | 108° |
| 2026-05-05 19:35 | 47.23802 | 10.91066 | 28186 ft | 487 kts | 108° |
| 2026-05-05 19:35 | 47.23026 | 10.95928 | 28392 ft | 488 kts | 108° |
| 2026-05-05 19:35 | 47.22245 | 11.00797 | 28609 ft | 490 kts | 108° |
| 2026-05-05 19:36 | 47.21464 | 11.05677 | 28876 ft | 490 kts | 108° |
| 2026-05-05 19:36 | 47.20682 | 11.10552 | 29193 ft | 489 kts | 108° |
| 2026-05-05 19:36 | 47.19898 | 11.15410 | 29471 ft | 489 kts | 108° |
| 2026-05-05 19:36 | 47.19121 | 11.20204 | 29726 ft | 488 kts | 108° |
| 2026-05-05 19:37 | 47.18334 | 11.25057 | 29927 ft | 488 kts | 108° |
| 2026-05-05 19:37 | 47.17545 | 11.29906 | 30136 ft | 487 kts | 108° |
| 2026-05-05 19:37 | 47.16753 | 11.34748 | 30332 ft | 487 kts | 108° |
| 2026-05-05 19:37 | 47.15960 | 11.39583 | 30547 ft | 486 kts | 108° |
| 2026-05-05 19:38 | 47.15165 | 11.44414 | 30768 ft | 485 kts | 108° |
| 2026-05-05 19:38 | 47.14371 | 11.49224 | 30995 ft | 485 kts | 108° |
| 2026-05-05 19:38 | 47.13573 | 11.54032 | 31238 ft | 484 kts | 108° |
| 2026-05-05 19:38 | 47.12775 | 11.58837 | 31468 ft | 484 kts | 108° |
| 2026-05-05 19:39 | 47.11978 | 11.63634 | 31708 ft | 482 kts | 108° |
| 2026-05-05 19:39 | 47.11187 | 11.68413 | 31982 ft | 481 kts | 108° |
| 2026-05-05 19:39 | 47.10396 | 11.73165 | 32214 ft | 480 kts | 108° |
| 2026-05-05 19:39 | 47.09600 | 11.77917 | 32450 ft | 479 kts | 108° |
| 2026-05-05 19:40 | 47.08801 | 11.82664 | 32652 ft | 478 kts | 108° |
| 2026-05-05 19:40 | 47.07908 | 11.87354 | 32835 ft | 475 kts | 114° |
| 2026-05-05 19:40 | 47.06668 | 11.91807 | 33025 ft | 470 kts | 118° |
| 2026-05-05 19:40 | 47.05373 | 11.96211 | 33210 ft | 470 kts | 118° |
| 2026-05-05 19:41 | 47.04099 | 12.00556 | 33435 ft | 470 kts | 118° |
| 2026-05-05 19:41 | 47.02794 | 12.05013 | 33644 ft | 469 kts | 118° |
| 2026-05-05 19:41 | 47.01504 | 12.09406 | 33866 ft | 469 kts | 118° |
| 2026-05-05 19:41 | 47.00235 | 12.13730 | 34033 ft | 468 kts | 118° |
| 2026-05-05 19:42 | 46.98949 | 12.18107 | 34210 ft | 468 kts | 118° |
| 2026-05-05 19:42 | 46.97660 | 12.22477 | 34436 ft | 467 kts | 118° |
| 2026-05-05 19:42 | 46.96365 | 12.26851 | 34568 ft | 467 kts | 118° |
| 2026-05-05 19:42 | 46.95068 | 12.31213 | 34737 ft | 467 kts | 118° |
| 2026-05-05 19:43 | 46.93774 | 12.35566 | 34902 ft | 467 kts | 118° |
| 2026-05-05 19:43 | 46.91188 | 12.44263 | 34975 ft | 466 kts | 118° |
| 2026-05-05 19:44 | 46.88588 | 12.52980 | 34982 ft | 469 kts | 118° |
| 2026-05-05 19:44 | 46.85970 | 12.61739 | 34970 ft | 473 kts | 118° |
| 2026-05-05 19:45 | 46.83307 | 12.70590 | 34975 ft | 478 kts | 118° |
| 2026-05-05 19:45 | 46.80631 | 12.79421 | 34973 ft | 481 kts | 118° |
| 2026-05-05 19:46 | 46.77913 | 12.88369 | 34978 ft | 483 kts | 118° |
| 2026-05-05 19:46 | 46.75188 | 12.97347 | 34976 ft | 484 kts | 118° |
| 2026-05-05 19:47 | 46.72925 | 13.04799 | 34984 ft | 483 kts | 118° |
| 2026-05-05 19:47 | 46.70184 | 13.13744 | 34985 ft | 483 kts | 118° |
| 2026-05-05 19:48 | 46.66986 | 13.24137 | 35006 ft | 484 kts | 118° |
| 2026-05-05 19:48 | 46.64677 | 13.31624 | 35009 ft | 484 kts | 118° |
| 2026-05-05 19:49 | 46.61919 | 13.40557 | 35007 ft | 484 kts | 118° |
| 2026-05-05 19:49 | 46.59159 | 13.49493 | 34990 ft | 484 kts | 118° |
| 2026-05-05 19:50 | 46.56375 | 13.58402 | 34983 ft | 484 kts | 118° |
| 2026-05-05 19:50 | 46.53598 | 13.67260 | 34982 ft | 485 kts | 118° |
| 2026-05-05 19:51 | 46.50733 | 13.76143 | 34990 ft | 485 kts | 120° |
| 2026-05-05 19:51 | 46.47648 | 13.84864 | 34975 ft | 485 kts | 122° |
| 2026-05-05 19:52 | 46.44496 | 13.93516 | 34987 ft | 486 kts | 121° |
| 2026-05-05 19:52 | 46.41372 | 14.02242 | 34987 ft | 487 kts | 121° |
| 2026-05-05 19:53 | 46.38278 | 14.10993 | 34999 ft | 488 kts | 121° |
| 2026-05-05 19:53 | 46.35164 | 14.19717 | 34995 ft | 488 kts | 121° |
| 2026-05-05 19:54 | 46.32030 | 14.28462 | 35004 ft | 489 kts | 121° |
| 2026-05-05 19:54 | 46.28891 | 14.37199 | 35010 ft | 490 kts | 121° |
| 2026-05-05 19:55 | 46.25740 | 14.45947 | 35014 ft | 491 kts | 121° |
| 2026-05-05 19:55 | 46.22588 | 14.54640 | 34998 ft | 492 kts | 121° |
| 2026-05-05 19:56 | 46.19402 | 14.63396 | 35006 ft | 493 kts | 121° |
| 2026-05-05 19:56 | 46.16202 | 14.72163 | 35010 ft | 494 kts | 121° |
| 2026-05-05 19:57 | 46.12995 | 14.80926 | 35011 ft | 494 kts | 121° |
| 2026-05-05 19:57 | 46.09780 | 14.89706 | 35002 ft | 494 kts | 120° |
| 2026-05-05 19:58 | 46.06567 | 14.98453 | 35014 ft | 493 kts | 120° |
| 2026-05-05 19:58 | 46.03358 | 15.07159 | 35015 ft | 491 kts | 121° |
| 2026-05-05 19:59 | 46.00136 | 15.15833 | 35012 ft | 491 kts | 121° |
| 2026-05-05 19:59 | 45.96937 | 15.24419 | 35000 ft | 490 kts | 120° |
| 2026-05-05 20:00 | 45.93723 | 15.33044 | 35001 ft | 489 kts | 120° |
| 2026-05-05 20:00 | 45.90514 | 15.41659 | 34988 ft | 490 kts | 121° |
| 2026-05-05 20:01 | 45.87287 | 15.50281 | 34986 ft | 490 kts | 121° |
| 2026-05-05 20:01 | 45.84040 | 15.58893 | 34991 ft | 491 kts | 121° |
| 2026-05-05 20:02 | 45.80780 | 15.67512 | 35000 ft | 491 kts | 121° |
| 2026-05-05 20:02 | 45.77519 | 15.76119 | 35002 ft | 492 kts | 121° |
| 2026-05-05 20:03 | 45.74248 | 15.84723 | 34988 ft | 492 kts | 121° |
| 2026-05-05 20:03 | 45.70976 | 15.93318 | 34998 ft | 491 kts | 121° |
| 2026-05-05 20:04 | 45.67704 | 16.01886 | 35004 ft | 491 kts | 121° |
| 2026-05-05 20:04 | 45.64449 | 16.10388 | 35005 ft | 490 kts | 121° |
| 2026-05-05 20:05 | 45.61159 | 16.18929 | 35002 ft | 490 kts | 121° |
| 2026-05-05 20:05 | 45.57870 | 16.27439 | 34997 ft | 489 kts | 121° |
| 2026-05-05 20:06 | 45.54578 | 16.35940 | 35006 ft | 489 kts | 121° |
| 2026-05-05 20:06 | 45.51287 | 16.44418 | 35008 ft | 488 kts | 121° |
| 2026-05-05 20:07 | 45.47993 | 16.52891 | 35010 ft | 488 kts | 121° |
| 2026-05-05 20:07 | 45.44689 | 16.61351 | 35008 ft | 488 kts | 121° |
| 2026-05-05 20:08 | 45.41394 | 16.69754 | 35010 ft | 488 kts | 121° |
| 2026-05-05 20:08 | 45.38079 | 16.78180 | 35011 ft | 488 kts | 121° |
| 2026-05-05 20:09 | 45.34755 | 16.86605 | 35009 ft | 488 kts | 121° |
| 2026-05-05 20:09 | 45.31431 | 16.95025 | 35005 ft | 489 kts | 121° |
| 2026-05-05 20:10 | 45.28101 | 17.03446 | 34996 ft | 489 kts | 121° |
| 2026-05-05 20:10 | 45.24754 | 17.11856 | 34999 ft | 490 kts | 121° |
| 2026-05-05 20:11 | 45.21385 | 17.20274 | 35001 ft | 490 kts | 121° |
| 2026-05-05 20:11 | 45.18017 | 17.28691 | 35005 ft | 491 kts | 121° |
| 2026-05-05 20:12 | 45.14643 | 17.37111 | 35009 ft | 491 kts | 121° |
| 2026-05-05 20:12 | 45.11327 | 17.45586 | 35014 ft | 492 kts | 119° |
| 2026-05-05 20:13 | 45.08263 | 17.54252 | 35011 ft | 492 kts | 117° |
| 2026-05-05 20:13 | 45.05273 | 17.62908 | 35004 ft | 493 kts | 117° |
| 2026-05-05 20:14 | 45.02183 | 17.71586 | 35003 ft | 494 kts | 118° |
| 2026-05-05 20:14 | 44.99033 | 17.80238 | 35009 ft | 494 kts | 118° |
| 2026-05-05 20:15 | 44.95888 | 17.88833 | 35004 ft | 495 kts | 118° |
| 2026-05-05 20:15 | 44.92734 | 17.97482 | 34993 ft | 496 kts | 118° |
| 2026-05-05 20:16 | 44.89574 | 18.06159 | 35006 ft | 497 kts | 118° |
| 2026-05-05 20:16 | 44.86411 | 18.14827 | 35011 ft | 497 kts | 118° |
| 2026-05-05 20:17 | 44.83230 | 18.23495 | 35005 ft | 498 kts | 118° |
| 2026-05-05 20:17 | 44.80025 | 18.32172 | 35002 ft | 499 kts | 118° |
| 2026-05-05 20:18 | 44.76814 | 18.40842 | 35006 ft | 500 kts | 118° |
| 2026-05-05 20:18 | 44.73598 | 18.49518 | 35017 ft | 500 kts | 118° |
| 2026-05-05 20:19 | 44.70394 | 18.58143 | 35021 ft | 501 kts | 118° |
| 2026-05-05 20:19 | 44.67155 | 18.66828 | 35030 ft | 502 kts | 118° |
| 2026-05-05 20:20 | 44.63905 | 18.75509 | 35012 ft | 502 kts | 118° |
| 2026-05-05 20:20 | 44.60642 | 18.84184 | 35013 ft | 502 kts | 118° |
| 2026-05-05 20:21 | 44.57372 | 18.92848 | 35012 ft | 503 kts | 118° |
| 2026-05-05 20:21 | 44.54101 | 19.01518 | 35018 ft | 503 kts | 118° |
| 2026-05-05 20:22 | 44.50824 | 19.10173 | 35017 ft | 503 kts | 119° |
| 2026-05-05 20:22 | 44.47540 | 19.18815 | 35019 ft | 503 kts | 118° |
| 2026-05-05 20:23 | 44.44237 | 19.27468 | 35014 ft | 504 kts | 118° |
| 2026-05-05 20:23 | 44.40928 | 19.36106 | 35021 ft | 504 kts | 119° |
| 2026-05-05 20:24 | 44.37604 | 19.44741 | 35024 ft | 504 kts | 118° |
| 2026-05-05 20:24 | 44.34287 | 19.53367 | 35032 ft | 504 kts | 118° |
| 2026-05-05 20:25 | 44.30960 | 19.61978 | 35034 ft | 503 kts | 118° |
| 2026-05-05 20:25 | 44.27629 | 19.70579 | 35030 ft | 503 kts | 118° |
| 2026-05-05 20:26 | 44.24321 | 19.79107 | 35036 ft | 503 kts | 119° |
| 2026-05-05 20:26 | 44.20984 | 19.87659 | 35017 ft | 502 kts | 119° |
| 2026-05-05 20:27 | 44.17643 | 19.96194 | 35017 ft | 502 kts | 119° |
| 2026-05-05 20:27 | 44.14297 | 20.04732 | 35023 ft | 502 kts | 119° |
| 2026-05-05 20:28 | 44.10948 | 20.13263 | 35033 ft | 502 kts | 119° |
| 2026-05-05 20:28 | 44.07593 | 20.21773 | 35030 ft | 501 kts | 119° |
| 2026-05-05 20:29 | 44.04230 | 20.30267 | 35028 ft | 501 kts | 119° |
| 2026-05-05 20:29 | 44.00861 | 20.38736 | 35035 ft | 501 kts | 119° |
| 2026-05-05 20:30 | 43.97491 | 20.47189 | 35038 ft | 499 kts | 119° |
| 2026-05-05 20:30 | 43.94122 | 20.55625 | 35035 ft | 498 kts | 119° |
| 2026-05-05 20:31 | 43.90763 | 20.64036 | 35025 ft | 498 kts | 119° |
| 2026-05-05 20:31 | 43.87395 | 20.72420 | 35028 ft | 497 kts | 119° |
| 2026-05-05 20:32 | 43.84021 | 20.80785 | 35021 ft | 497 kts | 119° |
| 2026-05-05 20:32 | 43.81217 | 20.87724 | 35015 ft | 497 kts | 119° |
| 2026-05-05 20:33 | 43.77282 | 20.97423 | 35012 ft | 497 kts | 120° |
| 2026-05-05 20:33 | 43.73803 | 21.05687 | 35018 ft | 497 kts | 121° |
| 2026-05-05 20:34 | 43.70253 | 21.13889 | 35016 ft | 497 kts | 121° |
| 2026-05-05 20:34 | 43.67285 | 21.20761 | 35007 ft | 497 kts | 121° |
| 2026-05-05 20:35 | 43.63761 | 21.28970 | 35020 ft | 497 kts | 121° |
| 2026-05-05 20:35 | 43.60236 | 21.37182 | 35010 ft | 497 kts | 121° |
| 2026-05-05 20:36 | 43.56705 | 21.45388 | 35021 ft | 497 kts | 121° |
| 2026-05-05 20:36 | 43.53163 | 21.53581 | 35020 ft | 497 kts | 121° |
| 2026-05-05 20:37 | 43.49605 | 21.61759 | 35039 ft | 498 kts | 121° |
| 2026-05-05 20:37 | 43.46071 | 21.69886 | 35035 ft | 499 kts | 121° |
| 2026-05-05 20:38 | 43.42496 | 21.78076 | 35050 ft | 499 kts | 121° |
| 2026-05-05 20:38 | 43.38908 | 21.86260 | 35047 ft | 499 kts | 121° |
| 2026-05-05 20:39 | 43.35321 | 21.94434 | 35047 ft | 500 kts | 121° |
| 2026-05-05 20:39 | 43.31723 | 22.02603 | 35052 ft | 500 kts | 121° |
| 2026-05-05 20:40 | 43.28123 | 22.10768 | 35045 ft | 500 kts | 121° |
| 2026-05-05 20:40 | 43.24521 | 22.18927 | 35056 ft | 500 kts | 121° |
| 2026-05-05 20:41 | 43.20900 | 22.27087 | 35056 ft | 501 kts | 121° |
| 2026-05-05 20:41 | 43.17267 | 22.35242 | 35063 ft | 502 kts | 121° |
| 2026-05-05 20:42 | 43.13627 | 22.43401 | 35068 ft | 502 kts | 120° |
| 2026-05-05 20:42 | 43.09978 | 22.51552 | 35065 ft | 502 kts | 121° |
| 2026-05-05 20:43 | 43.06317 | 22.59696 | 35077 ft | 503 kts | 121° |
| 2026-05-05 20:43 | 43.02645 | 22.67846 | 35077 ft | 503 kts | 121° |
| 2026-05-05 20:44 | 42.98972 | 22.75990 | 35083 ft | 503 kts | 120° |
| 2026-05-05 20:44 | 42.95871 | 22.84501 | 35082 ft | 501 kts | 109° |
| 2026-05-05 20:45 | 42.91968 | 22.97737 | 35078 ft | 501 kts | 110° |
| 2026-05-05 20:45 | 42.89342 | 23.06538 | 35088 ft | 501 kts | 110° |
| 2026-05-05 20:46 | 42.86733 | 23.15277 | 35086 ft | 501 kts | 110° |
| 2026-05-05 20:46 | 42.84103 | 23.24059 | 35085 ft | 500 kts | 110° |
| 2026-05-05 20:47 | 42.81467 | 23.32828 | 35100 ft | 500 kts | 110° |
| 2026-05-05 20:47 | 42.78831 | 23.41576 | 35091 ft | 498 kts | 110° |
| 2026-05-05 20:48 | 42.76196 | 23.50286 | 35095 ft | 497 kts | 110° |
| 2026-05-05 20:48 | 42.73555 | 23.58984 | 35093 ft | 497 kts | 110° |
| 2026-05-05 20:49 | 42.70911 | 23.67653 | 35101 ft | 496 kts | 110° |
| 2026-05-05 20:49 | 42.68266 | 23.76315 | 35098 ft | 496 kts | 110° |
| 2026-05-05 20:50 | 42.65649 | 23.84979 | 35095 ft | 495 kts | 109° |
| 2026-05-05 20:50 | 42.63242 | 23.93727 | 35106 ft | 494 kts | 107° |
| 2026-05-05 20:51 | 42.60910 | 24.02512 | 35098 ft | 494 kts | 107° |
| 2026-05-05 20:51 | 42.58470 | 24.11238 | 35093 ft | 495 kts | 110° |
| 2026-05-05 20:52 | 42.55666 | 24.19801 | 35084 ft | 496 kts | 112° |
| 2026-05-05 20:52 | 42.52715 | 24.28261 | 35089 ft | 497 kts | 112° |
| 2026-05-05 20:53 | 42.49812 | 24.36760 | 35082 ft | 497 kts | 112° |
| 2026-05-05 20:53 | 42.46974 | 24.45296 | 35074 ft | 497 kts | 111° |
| 2026-05-05 20:54 | 42.44154 | 24.53769 | 35080 ft | 497 kts | 111° |
| 2026-05-05 20:54 | 42.41291 | 24.62282 | 35072 ft | 497 kts | 111° |
| 2026-05-05 20:55 | 42.38421 | 24.70789 | 35067 ft | 497 kts | 111° |
| 2026-05-05 20:55 | 42.35538 | 24.79286 | 35065 ft | 497 kts | 112° |
| 2026-05-05 20:56 | 42.32650 | 24.87773 | 35062 ft | 497 kts | 112° |
| 2026-05-05 20:56 | 42.29764 | 24.96263 | 35063 ft | 497 kts | 112° |
| 2026-05-05 20:57 | 42.26872 | 25.04750 | 35061 ft | 497 kts | 112° |
| 2026-05-05 20:57 | 42.23961 | 25.13225 | 35071 ft | 497 kts | 112° |
| 2026-05-05 20:58 | 42.21046 | 25.21670 | 35066 ft | 496 kts | 112° |
| 2026-05-05 20:58 | 42.18138 | 25.30114 | 35069 ft | 496 kts | 112° |
| 2026-05-05 20:59 | 42.15229 | 25.38553 | 35076 ft | 496 kts | 112° |
| 2026-05-05 20:59 | 42.12324 | 25.46917 | 35074 ft | 495 kts | 112° |
| 2026-05-05 21:00 | 42.09399 | 25.55309 | 35076 ft | 495 kts | 112° |
| 2026-05-05 21:00 | 42.06479 | 25.63689 | 35074 ft | 494 kts | 112° |
| 2026-05-05 21:01 | 42.03556 | 25.72043 | 35066 ft | 492 kts | 112° |
| 2026-05-05 21:01 | 42.00661 | 25.80383 | 35068 ft | 492 kts | 112° |
| 2026-05-05 21:02 | 41.97741 | 25.88709 | 35072 ft | 492 kts | 112° |
| 2026-05-05 21:02 | 41.94789 | 25.97013 | 35083 ft | 493 kts | 112° |
| 2026-05-05 21:03 | 41.91841 | 26.05281 | 35081 ft | 493 kts | 112° |
| 2026-05-05 21:03 | 41.88881 | 26.13606 | 35085 ft | 494 kts | 112° |
| 2026-05-05 21:04 | 41.85920 | 26.21923 | 35085 ft | 494 kts | 112° |
| 2026-05-05 21:04 | 41.82946 | 26.30237 | 35103 ft | 494 kts | 113° |
| 2026-05-05 21:05 | 41.79944 | 26.38517 | 34705 ft | 493 kts | 114° |
| 2026-05-05 21:05 | 41.78375 | 26.42600 | 34135 ft | 493 kts | 115° |
| 2026-05-05 21:05 | 41.76753 | 26.46651 | 33486 ft | 494 kts | 116° |
| 2026-05-05 21:06 | 41.75103 | 26.50692 | 32852 ft | 494 kts | 116° |
| 2026-05-05 21:06 | 41.73447 | 26.54727 | 32236 ft | 495 kts | 116° |
| 2026-05-05 21:06 | 41.71796 | 26.58764 | 31632 ft | 495 kts | 116° |
| 2026-05-05 21:06 | 41.70156 | 26.62806 | 31037 ft | 494 kts | 115° |
| 2026-05-05 21:07 | 41.68531 | 26.66845 | 30451 ft | 493 kts | 115° |
| 2026-05-05 21:07 | 41.66928 | 26.70850 | 29829 ft | 493 kts | 115° |
| 2026-05-05 21:07 | 41.65308 | 26.74904 | 29151 ft | 494 kts | 115° |
| 2026-05-05 21:07 | 41.63686 | 26.78958 | 28494 ft | 495 kts | 115° |
| 2026-05-05 21:08 | 41.62057 | 26.83018 | 27857 ft | 496 kts | 115° |
| 2026-05-05 21:08 | 41.60416 | 26.87091 | 27239 ft | 497 kts | 115° |
| 2026-05-05 21:08 | 41.58775 | 26.91154 | 26622 ft | 496 kts | 116° |
| 2026-05-05 21:08 | 41.57136 | 26.95198 | 26019 ft | 493 kts | 116° |
| 2026-05-05 21:09 | 41.55511 | 26.99200 | 25433 ft | 487 kts | 116° |
| 2026-05-05 21:09 | 41.53899 | 27.03162 | 24849 ft | 483 kts | 116° |
| 2026-05-05 21:09 | 41.52300 | 27.07085 | 24285 ft | 480 kts | 115° |
| 2026-05-05 21:09 | 41.50709 | 27.10987 | 23727 ft | 476 kts | 115° |
| 2026-05-05 21:10 | 41.49129 | 27.14851 | 23088 ft | 473 kts | 115° |
| 2026-05-05 21:10 | 41.47565 | 27.18683 | 22439 ft | 468 kts | 116° |
| 2026-05-05 21:10 | 41.46020 | 27.22473 | 21827 ft | 463 kts | 116° |
| 2026-05-05 21:10 | 41.44487 | 27.26227 | 21198 ft | 459 kts | 116° |
| 2026-05-05 21:11 | 41.42964 | 27.29944 | 20589 ft | 455 kts | 115° |
| 2026-05-05 21:11 | 41.41456 | 27.33625 | 19996 ft | 451 kts | 115° |
| 2026-05-05 21:11 | 41.39956 | 27.37277 | 19413 ft | 448 kts | 115° |
| 2026-05-05 21:11 | 41.38487 | 27.40847 | 18851 ft | 444 kts | 115° |
| 2026-05-05 21:12 | 41.37005 | 27.44439 | 18268 ft | 441 kts | 115° |
| 2026-05-05 21:12 | 41.35515 | 27.48049 | 17641 ft | 437 kts | 116° |
| 2026-05-05 21:12 | 41.34078 | 27.51527 | 17006 ft | 432 kts | 116° |
| 2026-05-05 21:12 | 41.32641 | 27.55007 | 16382 ft | 427 kts | 116° |
| 2026-05-05 21:13 | 41.31218 | 27.58452 | 15778 ft | 423 kts | 116° |
| 2026-05-05 21:13 | 41.29805 | 27.61866 | 15180 ft | 419 kts | 116° |
| 2026-05-05 21:13 | 41.28398 | 27.65258 | 14594 ft | 415 kts | 115° |
| 2026-05-05 21:13 | 41.27009 | 27.68605 | 14010 ft | 412 kts | 115° |
| 2026-05-05 21:14 | 41.25631 | 27.71928 | 13400 ft | 408 kts | 115° |
| 2026-05-05 21:14 | 41.24268 | 27.75218 | 12764 ft | 405 kts | 115° |
| 2026-05-05 21:14 | 41.22911 | 27.78477 | 12137 ft | 401 kts | 115° |
| 2026-05-05 21:14 | 41.21564 | 27.81708 | 11539 ft | 398 kts | 115° |
| 2026-05-05 21:15 | 41.20228 | 27.84907 | 10939 ft | 395 kts | 115° |
| 2026-05-05 21:15 | 41.18899 | 27.88083 | 10357 ft | 392 kts | 115° |
| 2026-05-05 21:15 | 41.17593 | 27.91189 | 10063 ft | 377 kts | 115° |
| 2026-05-05 21:15 | 41.16343 | 27.94144 | 9994 ft | 356 kts | 115° |
| 2026-05-05 21:16 | 41.15167 | 27.96920 | 10007 ft | 335 kts | 115° |
| 2026-05-05 21:16 | 41.14068 | 27.99521 | 10007 ft | 324 kts | 114° |
| 2026-05-05 21:16 | 41.12961 | 28.02179 | 10012 ft | 332 kts | 114° |
| 2026-05-05 21:16 | 41.11843 | 28.04872 | 10010 ft | 334 kts | 114° |
| 2026-05-05 21:17 | 41.10717 | 28.07567 | 10020 ft | 335 kts | 114° |
| 2026-05-05 21:17 | 41.09585 | 28.10269 | 10011 ft | 335 kts | 115° |
| 2026-05-05 21:17 | 41.08449 | 28.12969 | 10012 ft | 336 kts | 115° |
| 2026-05-05 21:17 | 41.07309 | 28.15665 | 10014 ft | 335 kts | 115° |
| 2026-05-05 21:18 | 41.06170 | 28.18362 | 10013 ft | 335 kts | 115° |
| 2026-05-05 21:18 | 41.05029 | 28.21062 | 10014 ft | 336 kts | 115° |
| 2026-05-05 21:18 | 41.03889 | 28.23758 | 10013 ft | 336 kts | 115° |
| 2026-05-05 21:18 | 41.02748 | 28.26453 | 10012 ft | 333 kts | 115° |
| 2026-05-05 21:19 | 41.01643 | 28.29048 | 10012 ft | 314 kts | 115° |
| 2026-05-05 21:19 | 41.00593 | 28.31501 | 10010 ft | 297 kts | 114° |
| 2026-05-05 21:19 | 40.99598 | 28.33835 | 9739 ft | 293 kts | 114° |
| 2026-05-05 21:19 | 40.98609 | 28.36168 | 9422 ft | 289 kts | 114° |
| 2026-05-05 21:20 | 40.97630 | 28.38478 | 9115 ft | 289 kts | 114° |
| 2026-05-05 21:20 | 40.96642 | 28.40803 | 8800 ft | 290 kts | 115° |
| 2026-05-05 21:20 | 40.95649 | 28.43120 | 8488 ft | 289 kts | 115° |
| 2026-05-05 21:20 | 40.94977 | 28.44682 | 8280 ft | 288 kts | 115° |
| 2026-05-05 21:21 | 40.94054 | 28.47013 | 7976 ft | 283 kts | 104° |
| 2026-05-05 21:21 | 40.93729 | 28.49494 | 7681 ft | 275 kts | 82° |
| 2026-05-05 21:21 | 40.94038 | 28.51980 | 7380 ft | 270 kts | 72° |
| 2026-05-05 21:21 | 40.94438 | 28.54375 | 7080 ft | 269 kts | 72° |
| 2026-05-05 21:22 | 40.94842 | 28.56787 | 6790 ft | 268 kts | 72° |
| 2026-05-05 21:22 | 40.95246 | 28.59186 | 6500 ft | 266 kts | 72° |
| 2026-05-05 21:22 | 40.95647 | 28.61573 | 6183 ft | 265 kts | 72° |
| 2026-05-05 21:22 | 40.96044 | 28.63949 | 5877 ft | 263 kts | 72° |
| 2026-05-05 21:23 | 40.96437 | 28.66310 | 5571 ft | 262 kts | 71° |
| 2026-05-05 21:23 | 40.97097 | 28.68470 | 5288 ft | 254 kts | 49° |
| 2026-05-05 21:23 | 40.98407 | 28.69963 | 4979 ft | 249 kts | 29° |
| 2026-05-05 21:23 | 40.99918 | 28.71098 | 4670 ft | 250 kts | 26° |
| 2026-05-05 21:24 | 41.01429 | 28.72176 | 4367 ft | 247 kts | 26° |
| 2026-05-05 21:24 | 41.02980 | 28.73080 | 4068 ft | 240 kts | 11° |
| 2026-05-05 21:24 | 41.04600 | 28.73200 | 4003 ft | 228 kts | 359° |
| 2026-05-05 21:24 | 41.06188 | 28.73164 | 4008 ft | 228 kts | 359° |
| 2026-05-05 21:25 | 41.07781 | 28.73132 | 3899 ft | 229 kts | 359° |
| 2026-05-05 21:25 | 41.09368 | 28.73101 | 3631 ft | 227 kts | 359° |
| 2026-05-05 21:25 | 41.10946 | 28.73071 | 3353 ft | 225 kts | 359° |
| 2026-05-05 21:25 | 41.12477 | 28.73041 | 3053 ft | 213 kts | 359° |
| 2026-05-05 21:26 | 41.13905 | 28.73014 | 2788 ft | 197 kts | 359° |
| 2026-05-05 21:26 | 41.15218 | 28.72989 | 2543 ft | 184 kts | 359° |
| 2026-05-05 21:26 | 41.16479 | 28.72964 | 2274 ft | 180 kts | 359° |
| 2026-05-05 21:26 | 41.17732 | 28.72940 | 2025 ft | 179 kts | 359° |
| 2026-05-05 21:27 | 41.18944 | 28.72917 | 1776 ft | 165 kts | 359° |
| 2026-05-05 21:27 | 41.20036 | 28.72896 | 1557 ft | 151 kts | 359° |
| 2026-05-05 21:27 | 41.21058 | 28.72876 | 1368 ft | 147 kts | 359° |
| 2026-05-05 21:27 | 41.22075 | 28.72856 | 1165 ft | 145 kts | 359° |
| 2026-05-05 21:28 | 41.23084 | 28.72836 | 970 ft | 145 kts | 359° |
| 2026-05-05 21:28 | 41.24091 | 28.72818 | 779 ft | 144 kts | 360° |
| 2026-05-05 21:28 | 41.25095 | 28.72799 | 595 ft | 144 kts | 0° |
| 2026-05-05 21:28 | 41.26096 | 28.72773 | 392 ft | 143 kts | 0° |
| 2026-05-05 21:29 | 41.27058 | 28.72759 | 302 ft | 127 kts | 359° |
| 2026-05-05 21:29 | 41.27676 | 28.72748 | 282 ft | 59 kts | 360° |
| 2026-05-05 21:29 | 41.27943 | 28.72768 | 276 ft | 30 kts | 16° |
| 2026-05-05 21:29 | 41.28111 | 28.72869 | 275 ft | 17 kts | 30° |
| 2026-05-05 21:30 | 41.28119 | 28.72964 | 276 ft | 11 kts | 159° |
| 2026-05-05 21:30 | 41.28045 | 28.72966 | 281 ft | 10 kts | 179° |
| 2026-05-05 21:30 | 41.27981 | 28.72968 | 281 ft | 8 kts | 179° |
| 2026-05-05 21:30 | 41.27932 | 28.72969 | 282 ft | 4 kts | 179° |
| 2026-05-05 21:31 | 41.27920 | 28.72970 | 283 ft | 1 kts | 179° |
| 2026-05-05 21:31 | 41.27918 | 28.72970 | 283 ft | 0 kts | 179° |
| 2026-05-05 21:32 | 41.27911 | 28.72970 | 283 ft | 4 kts | 179° |
| 2026-05-05 21:32 | 41.27814 | 28.72972 | 290 ft | 23 kts | 179° |
| 2026-05-05 21:32 | 41.27631 | 28.72976 | 297 ft | 26 kts | 179° |
| 2026-05-05 21:32 | 41.27457 | 28.72980 | 302 ft | 24 kts | 179° |
| 2026-05-05 21:33 | 41.27293 | 28.72981 | 304 ft | 23 kts | 180° |
| 2026-05-05 21:33 | 41.27130 | 28.72984 | 308 ft | 23 kts | 179° |
| 2026-05-05 21:33 | 41.26988 | 28.72990 | 307 ft | 16 kts | 168° |
| 2026-05-05 21:33 | 41.26954 | 28.73128 | 308 ft | 21 kts | 88° |
| 2026-05-05 21:34 | 41.26957 | 28.73331 | 312 ft | 22 kts | 89° |
| 2026-05-05 21:34 | 41.26959 | 28.73538 | 312 ft | 23 kts | 89° |
| 2026-05-05 21:34 | 41.26962 | 28.73753 | 312 ft | 23 kts | 89° |
| 2026-05-05 21:34 | 41.26910 | 28.73868 | 313 ft | 16 kts | 177° |
| 2026-05-05 21:35 | 41.26797 | 28.73872 | 313 ft | 16 kts | 179° |
| 2026-05-05 21:35 | 41.26736 | 28.73834 | 313 ft | 8 kts | 280° |
| 2026-05-05 21:35 | 41.26739 | 28.73763 | 313 ft | 6 kts | 268° |
| 2026-05-05 21:35 | 41.26738 | 28.73753 | 313 ft | 0 kts | 269° |